Time;durP1;ratioP1;P1;durP2;ratioP2;P2;SDS_P1;SDS_P2;PMS_P1;PMS_P2;Temp;Humidity;BMP_temperature;BMP_pressure;BME280_temperature;BME280_humidity;BME280_pressure;Samples;Min_cycle;Max_cycle;Signal;HPM_P1;HPM_P2
2021/08/05 00:02:10;;;;;;;20.80;18.90;;;19.80;99.90;;;;;;6162973;23;20444;-87
2021/08/05 00:04:41;;;;;;;20.80;18.90;;;20.10;99.90;;;;;;6167846;23;20422;-86
2021/08/05 00:07:10;;;;;;;20.20;18.50;;;20.30;99.90;;;;;;6164859;23;20392;-86
2021/08/05 00:10:01;;;;;;;20.90;19.00;;;20.20;99.90;;;;;;6163010;23;20957;-86
2021/08/05 00:12:48;;;;;;;19.97;18.07;;;19.90;99.90;;;;;;6158857;23;20428;-85
2021/08/05 00:15:52;;;;;;;20.70;18.70;;;19.90;99.90;;;;;;6163703;23;20438;-86
2021/08/05 00:18:42;;;;;;;20.20;18.40;;;19.80;99.90;;;;;;6161249;23;20402;-86
2021/08/05 00:21:38;;;;;;;21.10;19.20;;;19.80;99.90;;;;;;6164094;23;20452;-87
2021/08/05 00:28:18;;;;;;;22.27;20.10;;;20.10;99.90;;;;;;6088561;23;20509;-87
2021/08/05 00:30:52;;;;;;;23.70;21.50;;;19.80;99.90;;;;;;6093369;23;20428;-85
2021/08/05 00:33:28;;;;;;;25.60;23.00;;;19.80;99.90;;;;;;6182048;23;20398;-85
2021/08/05 00:40:12;;;;;;;23.50;21.27;;;19.40;99.90;;;;;;6182524;23;20402;-85
2021/08/05 00:43:07;;;;;;;26.50;23.90;;;19.20;99.90;;;;;;6182120;23;20405;-84
2021/08/05 00:46:01;;;;;;;25.87;23.27;;;19.60;99.90;;;;;;6177972;23;20423;-85
2021/08/05 00:49:08;;;;;;;23.80;21.50;;;19.50;99.90;;;;;;6165502;23;20443;-86
2021/08/05 00:56:15;;;;;;;24.53;22.23;;;19.30;99.90;;;;;;6021967;23;20516;-87
2021/08/05 00:58:59;;;;;;;24.93;22.43;;;19.60;99.90;;;;;;6078135;23;20420;-86
2021/08/05 01:05:51;;;;;;;23.43;21.17;;;19.60;99.90;;;;;;6099437;23;20786;-84
2021/08/05 01:15:36;;;;;;;23.20;20.57;;;19.60;99.90;;;;;;6163714;23;20484;-86
2021/08/05 01:18:42;;;;;;;26.13;21.00;;;19.30;99.90;;;;;;6172394;23;20428;-87
2021/08/05 01:21:52;;;;;;;24.13;21.90;;;19.50;99.90;;;;;;6198347;23;20433;-85
2021/08/05 01:24:54;;;;;;;22.83;20.63;;;19.40;99.90;;;;;;6165888;23;20751;-86
2021/08/05 01:27:47;;;;;;;25.03;22.53;;;19.20;99.90;;;;;;6168224;23;20425;-87
2021/08/05 01:30:36;;;;;;;23.43;21.30;;;19.20;99.90;;;;;;6190769;23;20441;-84
2021/08/05 01:33:26;;;;;;;23.60;21.37;;;19.30;99.90;;;;;;6169276;23;20432;-86
2021/08/05 01:36:26;;;;;;;25.70;23.30;;;19.20;99.90;;;;;;6167747;23;20406;-86
2021/08/05 01:39:25;;;;;;;24.80;22.40;;;19.60;99.90;;;;;;6194264;23;20469;-87
2021/08/05 01:42:29;;;;;;;24.70;22.33;;;19.50;99.90;;;;;;6156004;23;20460;-87
2021/08/05 01:45:14;;;;;;;19.73;17.83;;;19.40;99.90;;;;;;6166692;23;20504;-86
2021/08/05 01:48:21;;;;;;;24.87;22.40;;;19.50;99.90;;;;;;6195171;23;20441;-87
2021/08/05 01:51:03;;;;;;;24.13;21.93;;;19.50;99.90;;;;;;6168967;23;20452;-86
2021/08/05 01:54:04;;;;;;;24.40;22.00;;;19.50;99.90;;;;;;6167645;23;20438;-87
2021/08/05 01:56:50;;;;;;;25.33;22.90;;;19.60;99.90;;;;;;6178889;23;20413;-88
2021/08/05 01:59:26;;;;;;;23.37;21.27;;;19.50;99.90;;;;;;6185107;23;20449;-86
2021/08/05 02:02:24;;;;;;;23.40;21.23;;;19.40;99.90;;;;;;6185785;23;20442;-85
2021/08/05 02:05:06;;;;;;;22.10;20.10;;;19.30;99.90;;;;;;6186022;23;20407;-86
2021/08/05 02:07:55;;;;;;;22.80;20.40;;;19.40;99.90;;;;;;6166874;23;20473;-85
2021/08/05 02:10:40;;;;;;;23.80;21.60;;;19.50;99.90;;;;;;6170269;23;20438;-85
2021/08/05 02:13:15;;;;;;;22.30;20.20;;;19.50;99.90;;;;;;6168946;23;20445;-85
2021/08/05 02:16:05;;;;;;;22.20;20.10;;;19.40;99.90;;;;;;6177841;23;20467;-86
2021/08/05 02:18:39;;;;;;;22.93;20.63;;;19.50;99.90;;;;;;6168477;23;20402;-86
2021/08/05 02:22:14;;;;;;;;;;;;;;;;;;;;;
2021/08/05 02:25:10;;;;;;;19.17;17.37;;;19.30;99.90;;;;;;6193345;23;20413;-86
2021/08/05 02:27:49;;;;;;;20.53;18.57;;;19.20;99.90;;;;;;6172665;23;20463;-85
2021/08/05 02:30:34;;;;;;;18.53;16.67;;;19.00;99.90;;;;;;6198650;23;20418;-86
2021/08/05 02:33:20;;;;;;;17.70;16.03;;;19.00;99.90;;;;;;6174366;23;20415;-87
2021/08/05 02:36:01;;;;;;;18.73;16.90;;;18.80;99.90;;;;;;6171440;23;20412;-86
2021/08/05 02:45:12;;;;;;;17.53;16.00;;;18.90;99.90;;;;;;6177688;23;20461;-84
2021/08/05 02:48:15;;;;;;;17.47;15.70;;;18.90;99.90;;;;;;6177866;23;20474;-86
2021/08/05 02:51:10;;;;;;;17.57;15.97;;;19.00;99.90;;;;;;6159732;23;20446;-85
2021/08/05 02:53:56;;;;;;;16.50;14.97;;;19.10;99.90;;;;;;6157048;23;20391;-88
2021/08/05 02:56:37;;;;;;;18.93;16.00;;;19.20;99.90;;;;;;6156729;23;20407;-85
2021/08/05 02:59:21;;;;;;;16.37;14.87;;;19.20;99.90;;;;;;6151496;23;20421;-86
2021/08/05 03:02:52;;;;;;;18.20;16.30;;;19.10;99.90;;;;;;6158962;23;20438;-86
2021/08/05 03:05:27;;;;;;;17.13;15.47;;;19.00;99.90;;;;;;6021800;23;20479;-84
2021/08/05 03:08:07;;;;;;;17.53;15.90;;;18.80;99.90;;;;;;6157752;23;20418;-86
2021/08/05 03:18:24;;;;;;;16.50;15.10;;;18.70;99.90;;;;;;6127801;23;20390;-88
2021/08/05 03:26:11;;;;;;;16.80;15.20;;;18.80;99.90;;;;;;6196151;23;20429;-85
2021/08/05 03:32:34;;;;;;;15.80;14.30;;;18.90;99.90;;;;;;6154847;23;21297;-85
2021/08/05 03:35:25;;;;;;;16.30;14.77;;;19.00;99.90;;;;;;6112971;23;20434;-87
2021/08/05 03:38:09;;;;;;;16.97;15.37;;;18.80;99.90;;;;;;6118175;23;20462;-87
2021/08/05 03:40:55;;;;;;;15.80;14.30;;;18.90;99.90;;;;;;6112886;23;20435;-85
2021/08/05 03:51:57;;;;;;;16.97;15.37;;;18.80;99.90;;;;;;6038867;23;20864;-85
2021/08/05 04:10:50;;;;;;;15.43;13.97;;;18.70;99.90;;;;;;6019724;23;20536;-85
2021/08/05 04:17:44;;;;;;;16.33;14.90;;;18.70;99.90;;;;;;6162413;23;20393;-85
2021/08/05 04:20:30;;;;;;;15.53;14.03;;;18.60;99.90;;;;;;6134547;23;20457;-85
2021/08/05 04:23:26;;;;;;;16.03;14.53;;;18.60;99.90;;;;;;6139291;23;20482;-84
2021/08/05 04:29:38;;;;;;;14.93;13.63;;;18.30;99.90;;;;;;6099871;23;20827;-86
2021/08/05 04:32:20;;;;;;;15.10;13.67;;;18.30;99.90;;;;;;6079796;23;20438;-87
2021/08/05 04:36:10;;;;;;;15.43;13.80;;;18.20;99.90;;;;;;6081638;23;20942;-87
2021/08/05 04:39:02;;;;;;;14.53;13.23;;;18.10;99.90;;;;;;5993844;23;20535;-86
2021/08/05 04:41:54;;;;;;;15.33;13.93;;;18.30;99.90;;;;;;6010689;23;20428;-86
2021/08/05 04:44:45;;;;;;;15.37;13.87;;;18.60;99.90;;;;;;6097588;23;20428;-87
2021/08/05 04:47:56;;;;;;;16.87;15.17;;;18.50;99.90;;;;;;6046781;23;20423;-86
2021/08/05 04:50:49;;;;;;;16.70;15.00;;;18.50;99.90;;;;;;6108429;23;20413;-85
2021/08/05 04:58:06;;;;;;;16.10;14.70;;;18.50;99.90;;;;;;6040874;23;20441;-85
2021/08/05 05:01:00;;;;;;;15.33;14.03;;;18.20;99.90;;;;;;6044611;23;20477;-85
2021/08/05 05:14:16;;;;;;;16.67;15.27;;;18.50;99.90;;;;;;6145548;23;20942;-85
2021/08/05 05:17:11;;;;;;;16.70;15.27;;;18.40;99.90;;;;;;6108229;23;20384;-86
2021/08/05 05:19:57;;;;;;;16.90;14.63;;;18.40;99.90;;;;;;6135427;23;20873;-86
2021/08/05 05:22:47;;;;;;;16.23;14.73;;;18.50;99.90;;;;;;6085674;23;20989;-86
2021/08/05 05:25:39;;;;;;;15.83;14.43;;;18.50;99.90;;;;;;6109222;23;20970;-85
2021/08/05 05:28:30;;;;;;;16.90;15.40;;;18.40;99.90;;;;;;6107846;23;20415;-86
2021/08/05 05:31:27;;;;;;;17.90;16.10;;;18.50;99.90;;;;;;6129924;23;20499;-86
2021/08/05 05:38:37;;;;;;;21.17;19.00;;;18.50;99.90;;;;;;6100011;23;20379;-86
2021/08/05 05:45:17;;;;;;;17.37;15.67;;;18.40;99.90;;;;;;6039909;23;20516;-86
2021/08/05 05:57:05;;;;;;;17.30;15.83;;;18.40;99.90;;;;;;6200584;23;20463;-85
2021/08/05 05:59:38;;;;;;;18.37;16.67;;;18.60;99.90;;;;;;6192537;23;20414;-86
2021/08/05 06:06:02;;;;;;;16.70;15.07;;;18.70;99.90;;;;;;6011869;23;20948;-85
2021/08/05 06:09:27;;;;;;;16.60;15.10;;;18.90;99.90;;;;;;5994222;23;20415;-84
2021/08/05 06:12:14;;;;;;;15.97;14.57;;;18.80;99.90;;;;;;5964684;24;20423;-85
2021/08/05 06:15:58;;;;;;;16.40;15.10;;;18.80;99.90;;;;;;5966495;24;20432;-84
2021/08/05 06:18:54;;;;;;;16.67;14.27;;;18.80;99.90;;;;;;5963237;24;20928;-85
2021/08/05 06:21:40;;;;;;;14.77;13.40;;;18.70;99.90;;;;;;6080826;23;20474;-86
2021/08/05 06:24:12;;;;;;;17.10;13.37;;;18.70;99.90;;;;;;6135019;23;20408;-85
2021/08/05 07:14:42;;;;;;;16.37;14.83;;;19.60;99.90;;;;;;6132699;23;20474;-86
2021/08/05 07:21:14;;;;;;;16.27;14.77;;;19.60;99.90;;;;;;6074855;23;20424;-85
2021/08/05 07:24:02;;;;;;;16.50;14.97;;;19.50;99.90;;;;;;6051683;23;20398;-86
2021/08/05 07:26:50;;;;;;;17.07;15.57;;;19.60;99.90;;;;;;5967918;24;20415;-86
2021/08/05 07:38:27;;;;;;;17.57;15.97;;;19.50;99.90;;;;;;6156352;23;20465;-86
2021/08/05 07:46:38;;;;;;;18.17;16.37;;;19.60;99.90;;;;;;6166771;23;20482;-87
2021/08/05 07:59:32;;;;;;;15.57;14.20;;;19.60;99.90;;;;;;6183039;23;20383;-86
2021/08/05 08:05:44;;;;;;;16.77;15.27;;;19.40;99.90;;;;;;6064524;23;20463;-86
2021/08/05 08:12:57;;;;;;;15.70;14.30;;;19.50;99.90;;;;;;6062046;23;20382;-87
2021/08/05 08:20:14;;;;;;;17.80;15.70;;;20.20;99.90;;;;;;6061621;23;20395;-86
2021/08/05 08:56:47;;;;;;;14.90;13.47;;;21.50;99.90;;;;;;6128878;23;20524;-86
2021/08/05 09:03:57;;;;;;;13.00;11.90;;;21.70;99.90;;;;;;6133319;23;20465;-88
2021/08/05 09:10:19;;;;;;;;;;;;;;;;;;;;;
2021/08/05 09:17:59;;;;;;;12.83;11.70;;;21.50;99.90;;;;;;6114872;23;20430;-87
2021/08/05 09:21:26;;;;;;;13.87;12.60;;;21.50;99.90;;;;;;6179687;23;20510;-88
2021/08/05 09:32:03;;;;;;;22.90;15.17;;;22.40;98.60;;;;;;6120280;23;20408;-87
2021/08/05 09:39:20;;;;;;;15.23;12.90;;;22.30;98.80;;;;;;6033830;23;20427;-85
2021/08/05 09:43:03;;;;;;;13.97;12.63;;;23.10;96.80;;;;;;6003732;23;20446;-87
2021/08/05 09:49:46;;;;;;;11.60;10.60;;;23.90;94.80;;;;;;5999071;23;20539;-86
2021/08/05 09:56:25;;;;;;;11.57;10.57;;;23.90;94.70;;;;;;6090856;23;20424;-86
2021/08/05 09:59:02;;;;;;;23.83;11.70;;;25.40;91.90;;;;;;6091039;23;20417;-84
2021/08/05 10:05:45;;;;;;;10.90;10.00;;;25.80;88.90;;;;;;6091973;23;20378;-87
2021/08/05 10:12:47;;;;;;;5.80;5.33;;;27.50;77.90;;;;;;6009949;23;20432;-88
2021/08/05 10:19:58;;;;;;;;;;;;;;;;;;;;;
2021/08/05 10:26:21;;;;;;;6.13;5.70;;;30.40;59.60;;;;;;6091662;23;20473;-86
2021/08/05 10:32:25;;;;;;;5.80;5.40;;;31.00;58.50;;;;;;6168187;23;20914;-87
2021/08/05 10:59:19;;;;;;;5.60;5.20;;;29.80;59.60;;;;;;6166059;23;20477;-87
2021/08/05 11:13:47;;;;;;;4.40;4.00;;;29.90;56.10;;;;;;6032977;23;20498;-84
2021/08/05 11:24:29;;;;;;;4.80;4.47;;;29.80;56.10;;;;;;5966859;24;20389;-86
2021/08/05 11:42:12;;;;;;;5.20;4.80;;;28.10;59.80;;;;;;6156716;23;20469;-86
2021/08/05 11:52:39;;;;;;;5.20;4.83;;;27.70;59.10;;;;;;6168939;23;20449;-88
2021/08/05 11:55:34;;;;;;;4.87;4.50;;;26.60;63.40;;;;;;6208895;23;20438;-86
2021/08/05 11:58:14;;;;;;;5.40;4.90;;;26.20;65.70;;;;;;6180015;23;20406;-87
2021/08/05 12:00:49;;;;;;;4.73;4.33;;;25.90;66.60;;;;;;6160583;23;20431;-87
2021/08/05 12:03:52;;;;;;;5.10;4.77;;;25.70;68.40;;;;;;6167168;23;20406;-87
2021/08/05 12:07:07;;;;;;;5.03;4.60;;;25.70;69.00;;;;;;6165538;23;20412;-87
2021/08/05 12:09:53;;;;;;;4.80;4.47;;;26.00;68.60;;;;;;6155629;23;20473;-87
2021/08/05 12:13:00;;;;;;;4.27;3.90;;;25.80;68.90;;;;;;6130262;23;20429;-85
2021/08/05 12:15:50;;;;;;;4.70;4.30;;;25.70;70.40;;;;;;6140243;23;20407;-86
2021/08/05 12:22:29;;;;;;;5.00;4.57;;;26.20;71.90;;;;;;6133618;23;20513;-87
2021/08/05 12:25:21;;;;;;;4.17;3.87;;;26.80;70.10;;;;;;6162252;23;20407;-85
2021/08/05 12:28:20;;;;;;;4.50;4.10;;;27.20;68.80;;;;;;6185039;23;20419;-87
2021/08/05 12:34:10;;;;;;;4.27;3.97;;;27.30;68.00;;;;;;6164224;23;20411;-86
2021/08/05 12:36:47;;;;;;;3.40;3.10;;;27.80;67.30;;;;;;6174364;23;20442;-88
2021/08/05 12:46:21;;;;;;;;;;;;;;;;;;;;;
2021/08/05 12:52:58;;;;;;;4.00;3.60;;;27.80;65.30;;;;;;6065472;23;20406;-86
2021/08/05 12:59:50;;;;;;;4.03;3.07;;;27.30;65.60;;;;;;5896147;24;20483;-86
2021/08/05 13:03:08;;;;;;;3.93;3.00;;;28.10;63.80;;;;;;5895559;24;20474;-85
2021/08/05 13:06:06;;;;;;;3.37;2.60;;;28.60;62.40;;;;;;5894795;24;20435;-87
2021/08/05 13:09:07;;;;;;;2.80;2.60;;;28.30;59.90;;;;;;5898135;24;20420;-86
2021/08/05 13:11:53;;;;;;;2.70;2.57;;;28.20;58.90;;;;;;6101423;23;20545;-85
2021/08/05 13:15:24;;;;;;;2.23;2.13;;;27.80;61.70;;;;;;6160029;23;20462;-87
2021/08/05 13:18:46;;;;;;;2.20;2.10;;;28.20;59.00;;;;;;6022970;23;20794;-86
2021/08/05 13:21:18;;;;;;;3.00;2.70;;;27.90;58.00;;;;;;6158963;23;20471;-86
2021/08/05 13:24:47;;;;;;;3.70;1.87;;;28.60;57.50;;;;;;6049528;23;20425;-86
2021/08/05 13:27:33;;;;;;;2.00;1.90;;;28.50;58.40;;;;;;5908035;24;20788;-86
2021/08/05 13:30:20;;;;;;;2.10;2.00;;;28.40;57.70;;;;;;5989563;24;20500;-86
2021/08/05 13:37:24;;;;;;;3.10;2.00;;;28.60;56.50;;;;;;5904786;24;20462;-86
2021/08/05 13:39:56;;;;;;;3.20;2.33;;;27.80;58.60;;;;;;5881284;24;20715;-85
2021/08/05 13:54:46;;;;;;;;;;;;;;;;;;;;;
2021/08/05 13:57:24;;;;;;;2.43;2.30;;;27.50;61.90;;;;;;5955541;23;20481;-86
2021/08/05 14:00:45;;;;;;;3.53;2.50;;;27.60;61.30;;;;;;6012080;23;20442;-85
2021/08/05 14:07:53;;;;;;;;;;;;;;;;;;;;;
2021/08/05 14:10:56;;;;;;;2.10;2.00;;;27.20;61.20;;;;;;5915030;24;20458;-86
2021/08/05 14:17:16;;;;;;;2.50;2.27;;;27.30;58.80;;;;;;5882077;24;20471;-87
2021/08/05 14:20:07;;;;;;;2.50;2.30;;;27.20;59.90;;;;;;5922222;23;20505;-86
2021/08/05 14:24:37;;;;;;;3.20;2.17;;;27.00;61.20;;;;;;5963292;24;20416;-87
2021/08/05 14:27:55;;;;;;;;;;;;;;;;;;;;;
2021/08/05 14:40:27;;;;;;;1.87;1.67;;;25.40;69.00;;;;;;5901018;24;20454;-87
2021/08/05 14:47:22;;;;;;;2.63;2.20;;;24.90;72.60;;;;;;5837513;24;20399;-87
2021/08/05 14:54:09;;;;;;;;;;;;;;;;;;;;;
2021/08/05 14:56:44;;;;;;;2.30;2.13;;;24.00;82.00;;;;;;6036745;23;20461;-85
2021/08/05 14:59:24;;;;;;;3.03;2.73;;;23.70;84.20;;;;;;6016205;23;20425;-86
2021/08/05 15:02:03;;;;;;;2.03;1.93;;;23.70;84.80;;;;;;6085864;23;20436;-86
2021/08/05 15:05:25;;;;;;;6.13;5.60;;;24.00;83.70;;;;;;6131277;23;20419;-86
2021/08/05 15:08:02;;;;;;;2.03;1.80;;;24.20;82.10;;;;;;6128806;23;20831;-87
2021/08/05 15:19:09;;;;;;;2.40;1.80;;;24.20;76.90;;;;;;6045136;23;20463;-87
2021/08/05 15:22:04;;;;;;;2.20;1.60;;;24.10;78.00;;;;;;6048226;23;20522;-88
2021/08/05 15:24:47;;;;;;;1.87;1.77;;;24.00;77.70;;;;;;6056142;23;20418;-86
2021/08/05 15:27:55;;;;;;;1.47;1.37;;;23.80;78.30;;;;;;6045424;23;20414;-87
2021/08/05 15:30:37;;;;;;;1.80;1.43;;;23.90;77.80;;;;;;6091607;23;20528;-87
2021/08/05 15:33:54;;;;;;;1.67;1.53;;;23.90;77.20;;;;;;6101607;23;20435;-86
2021/08/05 15:37:03;;;;;;;1.40;1.30;;;23.90;75.90;;;;;;6118048;23;20444;-85
2021/08/05 15:39:38;;;;;;;2.20;1.43;;;23.80;77.20;;;;;;6102775;23;20451;-86
2021/08/05 15:42:23;;;;;;;;;;;;;;;;;;;;;
2021/08/05 15:45:47;;;;;;;2.40;1.97;;;23.90;79.20;;;;;;6099584;23;20408;-84
2021/08/05 15:52:11;;;;;;;2.47;2.27;;;24.30;81.30;;;;;;6050038;23;20436;-84
2021/08/05 15:58:56;;;;;;;2.60;2.40;;;25.00;81.20;;;;;;6111551;23;20404;-85
2021/08/05 16:01:51;;;;;;;2.50;2.30;;;24.80;83.50;;;;;;6152946;23;20458;-85
2021/08/05 16:08:40;;;;;;;3.03;2.80;;;24.40;88.40;;;;;;6072982;23;20405;-86
2021/08/05 16:11:19;;;;;;;3.10;2.80;;;24.40;90.00;;;;;;6085621;23;20448;-86
2021/08/05 16:21:13;;;;;;;3.00;2.30;;;24.20;91.60;;;;;;6062865;23;20486;-85
2021/08/05 16:28:28;;;;;;;2.50;2.30;;;24.30;88.30;;;;;;6100209;23;20388;-87
2021/08/05 16:33:51;;;;;;;3.70;2.50;;;24.40;87.20;;;;;;6163571;23;20469;-86
2021/08/05 16:36:17;;;;;;;3.20;2.90;;;24.40;86.20;;;;;;6145314;23;20426;-87
2021/08/05 16:45:11;;;;;;;2.10;2.00;;;24.50;84.60;;;;;;6164556;23;20477;-86
2021/08/05 16:47:42;;;;;;;1.80;1.70;;;24.70;82.90;;;;;;6168093;23;20407;-86
2021/08/05 16:51:12;;;;;;;1.63;1.50;;;24.70;83.20;;;;;;6035058;23;20487;-85
2021/08/05 16:58:08;;;;;;;1.17;1.13;;;24.70;82.10;;;;;;5811446;24;21090;-85
2021/08/05 17:01:15;;;;;;;2.20;1.50;;;24.40;81.70;;;;;;5913172;23;20468;-87
2021/08/05 17:03:49;;;;;;;1.70;1.60;;;24.40;82.10;;;;;;6022652;23;20526;-87
2021/08/05 17:06:25;;;;;;;1.40;1.30;;;24.30;82.60;;;;;;6045184;23;20425;-87
2021/08/05 17:14:28;;;;;;;1.93;1.10;;;24.70;81.00;;;;;;6145957;23;20443;-86
2021/08/05 17:32:05;;;;;;;1.27;1.17;;;24.80;77.80;;;;;;6147680;23;20506;-85
2021/08/05 17:45:27;;;;;;;1.57;1.47;;;24.90;76.60;;;;;;6042681;23;20389;-86
2021/08/05 17:48:43;;;;;;;2.17;1.37;;;24.80;77.30;;;;;;6024892;23;20448;-86
2021/08/05 17:51:41;;;;;;;1.70;1.10;;;24.40;78.30;;;;;;6041601;23;20458;-87
2021/08/05 17:54:53;;;;;;;1.70;1.60;;;24.50;78.10;;;;;;6015940;23;20484;-87
2021/08/05 17:57:59;;;;;;;2.93;1.53;;;24.40;79.10;;;;;;6069747;23;20489;-84
2021/08/05 18:00:49;;;;;;;2.47;2.27;;;24.30;80.40;;;;;;6152260;23;20435;-86
2021/08/05 18:03:44;;;;;;;1.80;1.60;;;24.10;81.60;;;;;;6151042;23;20402;-86
2021/08/05 18:06:35;;;;;;;1.50;1.40;;;24.10;82.40;;;;;;6131821;23;20458;-87
2021/08/05 18:13:05;;;;;;;1.50;1.40;;;23.90;83.50;;;;;;6141888;23;20402;-87
2021/08/05 18:16:21;;;;;;;1.77;1.67;;;23.80;84.40;;;;;;6024741;23;20401;-86
2021/08/05 18:18:50;;;;;;;2.47;1.50;;;23.80;85.20;;;;;;6018116;23;21003;-86
2021/08/05 18:21:28;;;;;;;1.97;1.77;;;23.80;85.10;;;;;;6097206;23;20462;-86
2021/08/05 18:28:18;;;;;;;1.80;1.70;;;23.80;87.20;;;;;;6123836;23;20506;-86
2021/08/05 18:34:36;;;;;;;1.70;1.60;;;23.70;87.70;;;;;;6201497;23;20361;-86
2021/08/05 18:37:15;;;;;;;2.63;1.60;;;23.70;89.00;;;;;;6195467;23;20386;-86
2021/08/05 18:39:54;;;;;;;1.60;1.50;;;23.50;90.10;;;;;;6166124;23;20618;-85
2021/08/05 18:42:35;;;;;;;1.70;1.60;;;23.50;90.20;;;;;;6190463;23;20481;-85
2021/08/05 18:45:24;;;;;;;;;;;;;;;;;;;;;
2021/08/05 18:48:17;;;;;;;1.70;1.60;;;23.50;90.50;;;;;;6100544;23;20400;-84
2021/08/05 18:50:56;;;;;;;1.43;1.33;;;23.20;91.00;;;;;;6149540;23;20450;-85
2021/08/05 18:53:48;;;;;;;1.80;1.53;;;23.20;91.10;;;;;;6165738;23;20418;-85
2021/08/05 19:00:09;;;;;;;2.00;1.80;;;23.20;91.40;;;;;;6184031;23;20392;-85
2021/08/05 19:02:48;;;;;;;1.77;1.67;;;23.20;91.50;;;;;;6192994;23;20420;-86
2021/08/05 19:13:00;;;;;;;1.97;1.50;;;22.90;92.70;;;;;;6059832;23;20482;-85
2021/08/05 19:15:55;;;;;;;1.97;1.87;;;22.80;93.40;;;;;;6037982;23;20406;-86
2021/08/05 19:25:10;;;;;;;2.30;1.77;;;22.70;94.50;;;;;;6131789;23;20483;-87
2021/08/05 19:27:56;;;;;;;2.00;1.90;;;22.50;95.10;;;;;;6105816;23;20907;-88
2021/08/05 19:30:42;;;;;;;2.20;2.00;;;22.60;95.80;;;;;;6130768;23;21038;-87
2021/08/05 19:41:27;;;;;;;2.30;2.13;;;22.90;95.40;;;;;;6035024;23;20436;-86
2021/08/05 19:48:09;;;;;;;2.77;2.40;;;22.60;96.40;;;;;;6003110;23;20470;-85
2021/08/05 19:51:46;;;;;;;2.53;2.33;;;22.70;96.10;;;;;;5985306;24;20462;-86
2021/08/05 19:54:52;;;;;;;2.20;2.10;;;22.50;96.20;;;;;;5851699;24;20464;-87
2021/08/05 19:57:45;;;;;;;2.83;2.63;;;22.40;97.00;;;;;;5832979;24;20401;-86
2021/08/05 20:00:49;;;;;;;3.00;2.80;;;22.40;97.10;;;;;;5775548;24;20421;-87
2021/08/05 20:03:45;;;;;;;2.57;2.37;;;22.60;97.10;;;;;;5860623;24;20481;-87
2021/08/05 20:07:37;;;;;;;2.47;2.37;;;22.60;96.90;;;;;;5886766;24;20403;-87
2021/08/05 20:11:07;;;;;;;2.37;2.20;;;22.40;97.40;;;;;;5798048;24;20978;-87
2021/08/05 20:13:53;;;;;;;2.33;2.13;;;22.10;98.30;;;;;;5829754;24;20430;-86
2021/08/05 20:20:58;;;;;;;4.87;3.40;;;22.30;98.40;;;;;;5783026;24;20434;-85
2021/08/05 20:23:55;;;;;;;2.33;2.13;;;22.00;98.80;;;;;;5872921;24;20903;-85
2021/08/05 20:34:30;;;;;;;2.90;2.10;;;21.90;99.90;;;;;;5904568;24;20426;-86
2021/08/05 20:37:10;;;;;;;9.30;3.60;;;21.80;99.90;;;;;;5924216;23;20471;-85
2021/08/05 20:43:39;;;;;;;3.13;2.87;;;22.00;99.90;;;;;;5926951;23;20447;-86
2021/08/05 20:46:21;;;;;;;3.00;2.70;;;22.20;99.90;;;;;;6016454;23;20422;-88
2021/08/05 20:58:55;;;;;;;3.33;3.03;;;21.90;99.90;;;;;;6172350;23;20546;-87
2021/08/05 21:01:43;;;;;;;2.70;2.50;;;22.00;99.90;;;;;;6130345;23;20461;-85
2021/08/05 21:05:00;;;;;;;3.60;3.30;;;22.00;99.90;;;;;;6173734;23;20530;-85
2021/08/05 21:07:58;;;;;;;3.13;2.83;;;21.90;99.90;;;;;;6041283;23;20389;-86
2021/08/05 21:10:59;;;;;;;2.90;2.70;;;21.60;99.90;;;;;;6117831;23;20934;-86
2021/08/05 21:14:09;;;;;;;3.73;2.80;;;21.60;99.90;;;;;;6168483;23;20390;-85
2021/08/05 21:17:13;;;;;;;3.47;3.17;;;21.50;99.90;;;;;;6163885;23;20410;-85
2021/08/05 21:19:57;;;;;;;2.63;2.43;;;21.40;99.90;;;;;;6144040;23;20404;-81
2021/08/05 21:22:56;;;;;;;2.60;2.40;;;21.40;99.90;;;;;;6191590;23;20413;-87
2021/08/05 21:37:21;;;;;;;4.80;3.37;;;21.50;99.90;;;;;;6032866;23;20472;-84
2021/08/05 21:43:19;;;;;;;2.97;2.77;;;21.40;99.90;;;;;;6167341;23;20426;-85
2021/08/05 21:46:05;;;;;;;2.50;2.30;;;21.30;99.90;;;;;;6166681;23;20418;-85
2021/08/05 21:48:45;;;;;;;3.67;3.07;;;21.30;99.90;;;;;;6162501;23;20421;-86
2021/08/05 21:51:33;;;;;;;3.40;2.93;;;21.30;99.90;;;;;;6175428;23;20469;-84
2021/08/05 21:54:14;;;;;;;2.63;2.43;;;21.10;99.90;;;;;;6180123;23;20419;-85
2021/08/05 21:59:28;;;;;;;3.03;2.83;;;21.20;99.90;;;;;;6167748;23;20452;-86
2021/08/05 22:05:13;;;;;;;3.60;3.30;;;21.20;99.90;;;;;;6175702;23;20410;-83
2021/08/05 22:08:06;;;;;;;3.03;2.73;;;21.20;99.90;;;;;;6174529;23;20430;-84
2021/08/05 22:11:23;;;;;;;4.50;3.03;;;21.20;99.90;;;;;;6153052;23;20472;-85
2021/08/05 22:14:11;;;;;;;3.20;2.90;;;21.10;99.90;;;;;;6150227;23;20465;-83
2021/08/05 22:16:49;;;;;;;3.37;2.50;;;21.10;99.90;;;;;;6144592;23;20399;-87
2021/08/05 22:22:52;;;;;;;2.83;2.63;;;21.10;99.90;;;;;;6153017;23;20566;-86
2021/08/05 22:25:38;;;;;;;3.20;3.00;;;21.10;99.90;;;;;;6143826;23;20402;-84
2021/08/05 22:28:32;;;;;;;2.83;2.60;;;21.00;99.90;;;;;;6152514;23;20391;-85
2021/08/05 22:31:41;;;;;;;3.17;2.93;;;20.90;99.90;;;;;;6150489;23;20477;-85
2021/08/05 22:38:16;;;;;;;3.20;3.00;;;21.00;99.90;;;;;;6030033;23;20563;-85
2021/08/05 22:40:57;;;;;;;3.90;3.43;;;21.00;99.90;;;;;;6036705;23;20440;-86
2021/08/05 22:43:41;;;;;;;2.80;2.60;;;20.90;99.90;;;;;;6059956;23;20479;-84
2021/08/05 22:46:17;;;;;;;3.17;2.97;;;20.70;99.90;;;;;;6058792;23;20426;-85
2021/08/05 22:48:55;;;;;;;2.70;2.50;;;20.70;99.90;;;;;;6054154;23;20414;-87
2021/08/05 22:51:58;;;;;;;3.50;3.20;;;20.70;99.90;;;;;;6060252;23;20446;-86
2021/08/05 22:54:26;;;;;;;2.80;2.60;;;20.70;99.90;;;;;;6058374;23;20501;-84
2021/08/05 22:57:17;;;;;;;3.53;2.50;;;20.70;99.90;;;;;;6060450;23;20466;-84
2021/08/05 23:00:06;;;;;;;2.67;2.47;;;20.60;99.90;;;;;;6153368;23;20391;-85
2021/08/05 23:02:46;;;;;;;2.80;2.50;;;20.50;99.90;;;;;;6155320;23;20395;-86
2021/08/05 23:06:02;;;;;;;;;;;;;;;;;;;;;
2021/08/05 23:08:57;;;;;;;2.90;2.70;;;20.40;99.90;;;;;;6178477;23;20358;-85
2021/08/05 23:12:09;;;;;;;2.50;2.30;;;20.40;99.90;;;;;;6141666;23;20526;-84
2021/08/05 23:14:47;;;;;;;3.50;3.20;;;20.40;99.90;;;;;;6178183;23;20428;-86
2021/08/05 23:17:52;;;;;;;2.80;2.47;;;20.40;99.90;;;;;;6149645;23;20430;-85
2021/08/05 23:20:44;;;;;;;3.00;2.70;;;20.30;99.90;;;;;;6005056;23;20454;-86
2021/08/05 23:23:19;;;;;;;5.60;3.60;;;20.30;99.90;;;;;;6146853;23;20422;-87
2021/08/05 23:26:12;;;;;;;3.47;2.73;;;20.20;99.90;;;;;;6147090;23;20407;-87
2021/08/05 23:28:48;;;;;;;4.30;2.80;;;20.20;99.90;;;;;;6170651;23;20512;-87
2021/08/05 23:38:57;;;;;;;3.00;2.70;;;20.30;99.90;;;;;;6047382;23;20385;-87
2021/08/05 23:41:40;;;;;;;2.80;2.60;;;20.50;99.90;;;;;;6067829;23;20430;-88
2021/08/05 23:48:16;;;;;;;4.13;2.50;;;20.70;99.90;;;;;;6171555;23;20358;-87
2021/08/05 23:51:38;;;;;;;4.17;3.33;;;20.50;99.90;;;;;;6153354;23;20446;-86
2021/08/05 23:54:43;;;;;;;2.93;2.63;;;20.20;99.90;;;;;;6173610;23;20407;-87
2021/08/05 23:57:53;;;;;;;4.07;2.90;;;20.10;99.90;;;;;;6175549;23;20470;-84
